Time;durP1;ratioP1;P1;durP2;ratioP2;P2;SDS_P1;SDS_P2;PMS_P1;PMS_P2;Temp;Humidity;BMP_temperature;BMP_pressure;BME280_temperature;BME280_humidity;BME280_pressure;Samples;Min_cycle;Max_cycle;Signal;HPM_P1;HPM_P2
2021/10/09 00:00:13;;;;;;;;;6.25;5.00;;;;;24.08;41.58;102517.50;5077474;28;45324;-67
2021/10/09 00:02:38;;;;;;;;;5.75;5.00;;;;;24.06;41.83;102514.19;5073831;28;45563;-68
2021/10/09 00:05:05;;;;;;;;;6.50;6.00;;;;;24.05;41.67;102517.81;5075324;28;45383;-67
2021/10/09 00:07:31;;;;;;;;;8.75;6.75;;;;;24.00;42.44;102512.97;5075462;28;46957;-67
2021/10/09 00:10:00;;;;;;;;;5.75;5.75;;;;;24.01;41.85;102511.16;5075505;28;45380;-67
2021/10/09 00:12:27;;;;;;;;;5.25;5.25;;;;;23.96;42.04;102507.13;5077034;28;45426;-67
2021/10/09 00:14:53;;;;;;;;;8.00;6.25;;;;;24.03;41.95;102512.66;5074276;28;45668;-67
2021/10/09 00:17:20;;;;;;;;;4.25;4.25;;;;;24.00;41.83;102507.66;5073885;28;47230;-68
2021/10/09 00:19:45;;;;;;;;;8.50;6.00;;;;;24.03;41.44;102512.66;5075068;28;45391;-67
2021/10/09 00:22:11;;;;;;;;;5.25;5.25;;;;;24.01;41.85;102513.81;5075440;28;45340;-68
2021/10/09 00:24:36;;;;;;;;;8.50;5.25;;;;;23.95;41.50;102505.44;5076465;28;45320;-68
2021/10/09 00:27:02;;;;;;;;;8.00;7.00;;;;;24.02;41.68;102507.50;5074396;28;45626;-67
2021/10/09 00:29:27;;;;;;;;;4.75;4.50;;;;;24.03;41.62;102511.81;5074906;28;45505;-67
2021/10/09 00:31:52;;;;;;;;;6.25;6.25;;;;;24.03;41.14;102509.16;5075162;28;45325;-67
2021/10/09 00:34:18;;;;;;;;;6.50;5.00;;;;;24.03;41.68;102512.66;5075360;28;45508;-67
2021/10/09 00:36:43;;;;;;;;;5.00;5.00;;;;;24.03;42.00;102515.31;5057304;28;46341;-67
2021/10/09 00:39:08;;;;;;;;;5.00;5.00;;;;;24.03;41.12;102515.31;5076102;28;45390;-68
2021/10/09 00:41:34;;;;;;;;;8.00;5.50;;;;;23.95;41.58;102499.28;5073389;28;45922;-67
2021/10/09 00:44:13;;;;;;;;;6.75;6.75;;;;;24.04;41.42;102517.00;5074850;28;45420;-67
2021/10/09 00:46:39;;;;;;;;;7.00;7.00;;;;;24.03;41.27;102515.31;5074703;28;46141;-67
2021/10/09 00:49:05;;;;;;;;;6.75;6.00;;;;;24.03;41.35;102511.81;5073767;28;45299;-67
2021/10/09 00:51:30;;;;;;;;;6.00;6.00;;;;;24.02;41.61;102507.50;5076896;28;45365;-67
2021/10/09 00:53:59;;;;;;;;;6.25;5.75;;;;;23.89;41.40;102489.28;5073044;28;45487;-67
2021/10/09 00:56:26;;;;;;;;;7.25;6.00;;;;;23.99;41.75;102513.13;5074444;28;46177;-68
2021/10/09 00:58:51;;;;;;;;;7.25;7.00;;;;;23.98;41.67;102514.09;5074656;28;45361;-67
2021/10/09 01:01:18;;;;;;;;;6.00;6.00;;;;;23.94;41.74;102503.75;5074364;28;45463;-67
2021/10/09 01:03:46;;;;;;;;;7.00;6.00;;;;;23.85;41.24;102494.06;5075778;28;45532;-67
2021/10/09 01:06:11;;;;;;;;;3.00;3.00;;;;;23.95;41.72;102501.94;5074138;28;46067;-67
2021/10/09 01:08:36;;;;;;;;;6.25;5.75;;;;;23.95;41.29;102505.44;5054204;28;45489;-67
2021/10/09 01:11:02;;;;;;;;;7.00;6.00;;;;;23.94;41.43;102506.44;5057282;28;45275;-68
2021/10/09 01:13:28;;;;;;;;;7.75;6.50;;;;;23.92;41.63;102503.09;5074632;27;45423;-67
2021/10/09 01:15:53;;;;;;;;;8.00;6.50;;;;;23.93;41.12;102499.47;5074543;28;45400;-67
2021/10/09 01:18:20;;;;;;;;;6.50;5.00;;;;;23.93;41.71;102504.78;5076203;28;47176;-67
2021/10/09 01:20:52;;;;;;;;;6.50;6.50;;;;;23.92;41.59;102504.91;5072959;28;45338;-67
2021/10/09 01:23:19;;;;;;;;;6.25;5.00;;;;;23.92;41.58;102497.78;5073388;28;45617;-67
2021/10/09 01:25:46;;;;;;;;;6.00;6.00;;;;;23.91;41.75;102497.94;5073904;28;46533;-68
2021/10/09 01:28:11;;;;;;;;;8.00;6.50;;;;;23.91;41.75;102493.47;5074038;28;45541;-67
2021/10/09 01:30:37;;;;;;;;;5.00;5.00;;;;;23.93;41.30;102501.28;5075612;28;45952;-67
2021/10/09 01:33:04;;;;;;;;;8.00;6.50;;;;;23.91;41.82;102497.94;5074947;28;45436;-67
2021/10/09 01:35:29;;;;;;;;;6.75;6.75;;;;;23.88;41.79;102499.09;5074003;28;45308;-67
2021/10/09 01:37:54;;;;;;;;;5.25;5.25;;;;;23.80;41.33;102481.25;5072788;28;45324;-67
2021/10/09 01:40:20;;;;;;;;;6.00;6.00;;;;;23.89;41.68;102490.09;5074238;28;45390;-68
2021/10/09 01:42:45;;;;;;;;;7.00;7.00;;;;;23.89;41.21;102490.09;5074942;28;47035;-68
2021/10/09 01:45:11;;;;;;;;;7.25;7.25;;;;;23.86;41.11;102482.47;5073558;28;45541;-67
2021/10/09 01:47:40;;;;;;;;;5.00;5.00;;;;;23.85;41.24;102489.59;5073993;28;45400;-67
2021/10/09 01:50:07;;;;;;;;;8.00;6.75;;;;;23.90;41.53;102491.78;5074061;28;45328;-67
2021/10/09 01:52:33;;;;;;;;;9.00;6.25;;;;;23.88;41.17;102484.94;5073540;28;45570;-67
2021/10/09 01:54:58;;;;;;;;;7.50;7.50;;;;;23.92;41.52;102492.47;5073614;28;46089;-67
2021/10/09 01:57:23;;;;;;;;;5.25;5.25;;;;;23.91;41.27;102492.63;5075945;28;45251;-67
2021/10/09 01:59:49;;;;;;;;;7.75;6.75;;;;;23.91;41.27;102485.50;5072157;28;45323;-67
2021/10/09 02:02:14;;;;;;;;;5.25;5.25;;;;;23.93;41.22;102490.63;5073847;28;45233;-67
2021/10/09 02:04:39;;;;;;;;;7.50;7.00;;;;;23.91;41.25;102487.31;5073678;28;45868;-67
2021/10/09 02:07:07;;;;;;;;;8.00;7.75;;;;;23.93;41.18;102496.81;5072951;28;45625;-68
2021/10/09 02:09:32;;;;;;;;;5.75;5.75;;;;;23.89;41.34;102483.97;5075542;28;45349;-68
2021/10/09 02:11:57;;;;;;;;;5.25;4.50;;;;;23.93;40.67;102491.47;5073803;28;45935;-67
2021/10/09 02:14:30;;;;;;;;;7.75;6.00;;;;;23.92;40.87;102488.97;5073550;28;47087;-67
2021/10/09 02:27:38;;;;;;;;;5.25;5.25;;;;;23.90;41.12;102477.66;5074808;28;45349;-67
2021/10/09 02:30:04;;;;;;;;;5.75;5.75;;;;;23.79;40.92;102468.91;5074179;28;45462;-67
2021/10/09 02:32:29;;;;;;;;;9.75;6.25;;;;;23.89;40.75;102486.63;5064783;28;45486;-67
2021/10/09 02:34:54;;;;;;;;;6.75;6.00;;;;;23.88;40.80;102483.13;5073343;28;45303;-67
2021/10/09 02:37:20;;;;;;;;;7.25;5.50;;;;;23.85;40.92;102478.97;5071407;28;45280;-67
2021/10/09 02:39:45;;;;;;;;;6.00;6.00;;;;;23.85;41.37;102470.97;5074354;28;45306;-67
2021/10/09 02:42:10;;;;;;;;;5.25;5.25;;;;;23.87;41.47;102485.91;5078690;28;45250;-67
2021/10/09 02:44:36;;;;;;;;;8.25;6.00;;;;;23.75;41.04;102456.94;5076665;28;46048;-67
2021/10/09 02:47:01;;;;;;;;;6.00;5.25;;;;;23.86;40.78;102479.81;5076576;28;45502;-67
2021/10/09 02:49:27;;;;;;;;;9.25;7.50;;;;;23.87;40.80;102472.63;5077009;28;45500;-67
2021/10/09 02:51:52;;;;;;;;;5.00;5.00;;;;;23.85;41.05;102476.31;5076503;28;45273;-67
2021/10/09 02:54:17;;;;;;;;;7.00;5.00;;;;;23.85;40.97;102473.63;5078316;28;46080;-67
2021/10/09 02:56:43;;;;;;;;;6.50;4.75;;;;;23.82;41.25;102470.44;5076618;28;45303;-67
2021/10/09 02:59:08;;;;;;;;;7.00;6.00;;;;;23.84;41.35;102466.63;5076686;28;45280;-67
2021/10/09 03:01:33;;;;;;;;;9.00;7.25;;;;;23.85;41.15;102467.47;5074882;28;45546;-67
2021/10/09 03:03:59;;;;;;;;;5.25;5.25;;;;;23.83;40.83;102467.66;5060186;28;45241;-67
2021/10/09 03:06:24;;;;;;;;;7.00;6.00;;;;;23.83;40.92;102461.50;5078142;28;45264;-67
2021/10/09 03:08:51;;;;;;;;;6.00;6.00;;;;;23.83;41.05;102467.66;5076586;28;45706;-67
2021/10/09 03:11:16;;;;;;;;;4.25;4.25;;;;;23.80;41.36;102462.63;5076223;28;45446;-68
2021/10/09 03:13:41;;;;;;;;;7.50;7.50;;;;;23.85;41.15;102464.81;5076173;28;46295;-67
2021/10/09 03:16:06;;;;;;;;;6.00;5.00;;;;;23.82;40.87;102462.47;5074953;28;45510;-67
2021/10/09 03:18:32;;;;;;;;;7.00;6.00;;;;;23.85;41.11;102470.97;5078143;28;45557;-67
2021/10/09 03:20:57;;;;;;;;;4.50;4.50;;;;;23.85;41.27;102472.81;5076136;28;45364;-67
2021/10/09 03:23:23;;;;;;;;;5.50;5.50;;;;;23.84;40.88;102460.47;5076041;28;46014;-67
2021/10/09 03:25:48;;;;;;;;;7.00;6.50;;;;;23.85;40.50;102468.31;5076055;28;45494;-68
2021/10/09 03:28:13;;;;;;;;;8.25;7.00;;;;;23.87;40.93;102478.78;5076523;28;45745;-67
2021/10/09 03:30:38;;;;;;;;;6.00;4.75;;;;;23.86;40.51;102474.47;5077342;28;45480;-68
2021/10/09 03:33:04;;;;;;;;;6.75;6.75;;;;;23.86;40.85;102474.47;5076568;28;46264;-67
2021/10/09 03:35:29;;;;;;;;;7.25;5.75;;;;;23.74;41.10;102452.59;5075622;28;46362;-67
2021/10/09 03:37:54;;;;;;;;;5.50;5.50;;;;;23.87;41.05;102472.63;5075940;28;45407;-67
2021/10/09 03:40:22;;;;;;;;;6.50;6.50;;;;;23.83;41.06;102469.47;5074605;28;45511;-68
2021/10/09 03:42:54;;;;;;;;;6.00;6.00;;;;;23.85;40.94;102476.31;5075104;28;46608;-68
2021/10/09 03:45:49;;;;;;;;;6.00;6.00;;;;;23.87;41.01;102483.25;5077463;28;45343;-67
2021/10/09 03:53:34;;;;;;;;;6.25;6.25;;;;;23.85;41.05;102478.13;5075520;28;45370;-67
2021/10/09 03:56:00;;;;;;;;;6.50;6.50;;;;;23.84;40.49;102473.78;5073248;28;45352;-68
2021/10/09 03:58:26;;;;;;;;;8.00;6.75;;;;;23.74;40.94;102464.06;5075578;28;45371;-67
2021/10/09 04:00:51;;;;;;;;;6.75;6.75;;;;;23.82;40.58;102473.94;5075702;27;45292;-67
2021/10/09 04:03:16;;;;;;;;;6.50;5.00;;;;;23.82;41.10;102476.59;5076912;28;45919;-67
2021/10/09 04:05:42;;;;;;;;;7.50;7.00;;;;;23.78;40.84;102469.09;5075509;28;45253;-67
2021/10/09 04:08:07;;;;;;;;;6.00;5.25;;;;;23.82;40.95;102481.91;5075664;28;47493;-67
2021/10/09 04:10:35;;;;;;;;;6.00;6.00;;;;;23.82;40.62;102481.06;5075624;28;45577;-67
2021/10/09 04:13:00;;;;;;;;;5.00;5.00;;;;;23.72;40.61;102462.56;5059010;28;46185;-68
2021/10/09 04:15:26;;;;;;;;;6.00;6.00;;;;;23.82;40.83;102481.06;5077261;28;45383;-67
2021/10/09 04:17:51;;;;;;;;;8.00;6.00;;;;;23.81;41.11;102480.22;5057915;28;45352;-67
2021/10/09 04:20:16;;;;;;;;;5.50;5.50;;;;;23.81;41.12;102474.09;5073934;28;45305;-67
2021/10/09 04:22:42;;;;;;;;;5.50;5.00;;;;;23.81;40.66;102480.22;5074936;28;46191;-67
2021/10/09 04:25:08;;;;;;;;;6.00;6.00;;;;;23.71;40.72;102467.03;5075245;28;45411;-67
2021/10/09 04:27:34;;;;;;;;;6.00;6.00;;;;;23.80;40.99;102475.91;5076885;28;45492;-67
2021/10/09 04:29:59;;;;;;;;;6.00;5.25;;;;;23.79;40.89;102484.88;5073910;28;45426;-67
2021/10/09 04:32:24;;;;;;;;;4.25;4.25;;;;;23.73;40.97;102475.69;5074353;28;48134;-68
2021/10/09 04:34:50;;;;;;;;;6.00;6.00;;;;;23.79;41.10;102481.38;5073281;28;52124;-67
2021/10/09 04:37:15;;;;;;;;;6.50;6.50;;;;;23.66;40.57;102465.81;5075041;28;45519;-67
2021/10/09 04:39:40;;;;;;;;;8.25;7.25;;;;;23.78;40.45;102485.88;5076182;28;45339;-67
2021/10/09 04:42:06;;;;;;;;;7.25;6.00;;;;;23.79;40.59;102489.34;5075873;28;47108;-68
2021/10/09 04:44:32;;;;;;;;;8.00;6.75;;;;;23.77;40.77;102484.19;5074721;28;45369;-67
2021/10/09 04:46:57;;;;;;;;;9.00;9.00;;;;;23.78;40.72;102483.22;5074518;28;45516;-67
2021/10/09 04:49:23;;;;;;;;;7.00;7.00;;;;;23.78;40.49;102488.53;5058041;28;45527;-67
2021/10/09 04:51:48;;;;;;;;;7.25;6.00;;;;;23.79;40.74;102495.50;5074882;28;46037;-67
2021/10/09 04:54:13;;;;;;;;;5.75;5.25;;;;;23.71;40.96;102480.31;5076684;28;45330;-67
2021/10/09 04:56:39;;;;;;;;;6.25;6.25;;;;;23.80;40.66;102489.22;5074771;28;45532;-66
2021/10/09 04:59:04;;;;;;;;;5.00;5.00;;;;;23.80;40.34;102485.72;5073163;28;45487;-67
2021/10/09 05:01:29;;;;;;;;;6.00;6.00;;;;;23.80;40.90;102488.38;5073945;28;45702;-67
2021/10/09 05:03:55;;;;;;;;;7.25;7.25;;;;;23.80;40.18;102489.22;5074157;28;45228;-67
2021/10/09 05:06:20;;;;;;;;;6.00;6.00;;;;;23.81;40.73;102490.06;5076626;28;45534;-67
2021/10/09 05:08:45;;;;;;;;;6.25;6.25;;;;;23.78;40.24;102480.56;5074754;28;45437;-68
2021/10/09 05:11:11;;;;;;;;;6.00;6.00;;;;;23.81;40.47;102479.41;5074279;28;47976;-67
2021/10/09 05:13:36;;;;;;;;;6.00;6.00;;;;;23.80;40.56;102486.56;5072900;28;45360;-67
2021/10/09 05:16:01;;;;;;;;;6.00;6.00;;;;;23.81;40.52;102487.41;5074437;28;45375;-67
2021/10/09 05:18:27;;;;;;;;;5.50;5.50;;;;;23.81;40.68;102487.41;5076386;28;45604;-67
2021/10/09 05:20:52;;;;;;;;;7.50;6.25;;;;;23.72;40.21;102473.19;5074220;28;46856;-67
2021/10/09 05:23:17;;;;;;;;;6.00;6.00;;;;;23.80;40.60;102493.69;5074109;28;45378;-67
2021/10/09 05:25:44;;;;;;;;;7.00;5.00;;;;;23.80;40.77;102491.03;5074476;28;45414;-67
2021/10/09 05:28:16;;;;;;;;;7.25;5.75;;;;;23.79;40.82;102484.03;5074361;28;45537;-67
2021/10/09 05:30:48;;;;;;;;;5.50;5.00;;;;;23.80;40.60;102499.00;5074606;28;46980;-67
2021/10/09 05:35:42;;;;;;;;;6.50;5.75;;;;;23.71;40.75;102487.44;5073994;28;45360;-67
2021/10/09 05:38:08;;;;;;;;;5.25;5.25;;;;;23.79;40.57;102497.31;5072505;28;45349;-68
2021/10/09 05:40:33;;;;;;;;;7.00;6.00;;;;;23.78;40.55;102500.97;5073963;28;46135;-67
2021/10/09 05:42:59;;;;;;;;;6.50;5.00;;;;;23.78;40.86;102500.97;5056334;28;45868;-67
2021/10/09 05:45:24;;;;;;;;;6.50;6.50;;;;;23.77;40.33;102501.94;5075836;28;45349;-68
2021/10/09 05:47:51;;;;;;;;;5.00;5.00;;;;;23.69;40.35;102492.91;5074007;28;45623;-67
2021/10/09 05:50:17;;;;;;;;;6.25;5.00;;;;;23.65;40.71;102488.91;5073679;28;46625;-67
2021/10/09 05:52:56;;;;;;;;;5.75;4.50;;;;;23.65;40.70;102496.88;5072371;28;45342;-67
2021/10/09 05:55:30;;;;;;;;;5.50;5.50;;;;;23.67;40.74;102486.94;5073952;28;45470;-67
2021/10/09 05:58:21;;;;;;;;;6.75;6.00;;;;;23.72;40.43;102497.09;5074137;28;45293;-67
2021/10/09 07:00:40;;;;;;;;;13.25;12.00;;;;;23.76;39.82;102546.28;4994103;28;45405;-68
2021/10/09 07:03:05;;;;;;;;;14.00;14.00;;;;;23.74;38.80;102551.78;4996862;28;45279;-68
2021/10/09 07:05:33;;;;;;;;;15.25;11.75;;;;;23.72;38.63;102543.13;4997640;28;47289;-68
2021/10/09 07:08:05;;;;;;;;;13.25;12.25;;;;;23.73;38.83;102547.44;4993965;28;45510;-67
2021/10/09 07:10:30;;;;;;;;;14.25;12.25;;;;;23.72;38.54;102551.09;5041326;28;45472;-67
2021/10/09 07:12:56;;;;;;;;;14.00;13.00;;;;;23.72;38.33;102550.25;5055861;28;45439;-68
2021/10/09 07:15:21;;;;;;;;;19.25;16.00;;;;;23.72;38.11;102555.56;5057602;28;47148;-68
2021/10/09 07:17:46;;;;;;;;;15.25;15.25;;;;;23.63;38.33;102536.03;5055746;28;45431;-67
2021/10/09 07:20:12;;;;;;;;;17.25;13.75;;;;;23.76;38.14;102548.94;5055582;28;45419;-66
2021/10/09 07:22:38;;;;;;;;;18.25;17.00;;;;;23.78;38.22;102559.44;5051588;28;45592;-66
2021/10/09 07:25:05;;;;;;;;;24.00;18.00;;;;;23.78;37.62;102554.13;5039378;28;45939;-67
2021/10/09 07:27:31;;;;;;;;;15.75;13.50;;;;;23.80;37.64;102560.13;5057491;28;45655;-66
2021/10/09 07:29:57;;;;;;;;;14.75;13.75;;;;;23.82;38.03;102555.50;5054949;28;45475;-67
2021/10/09 07:32:22;;;;;;;;;16.25;15.00;;;;;23.85;37.65;102555.19;5055709;28;45316;-68
2021/10/09 07:34:48;;;;;;;;;13.50;13.00;;;;;23.90;38.30;102563.56;5045798;28;46278;-68
2021/10/09 07:37:14;;;;;;;;;10.75;10.25;;;;;23.91;38.24;102551.94;5055448;28;45400;-68
2021/10/09 07:39:39;;;;;;;;;15.75;12.00;;;;;23.99;37.57;102563.63;5056683;28;45306;-69
2021/10/09 07:42:05;;;;;;;;;13.25;11.00;;;;;24.01;37.66;102559.00;5056589;28;45451;-68
2021/10/09 07:44:30;;;;;;;;;10.00;10.00;;;;;24.07;38.38;102563.72;5037263;28;47376;-68
2021/10/09 07:46:56;;;;;;;;;12.50;11.25;;;;;24.10;37.91;102566.06;5055436;28;45436;-68
2021/10/09 07:49:21;;;;;;;;;10.50;10.00;;;;;24.13;38.51;102579.03;5054067;28;45758;-68
2021/10/09 07:51:47;;;;;;;;;12.00;10.00;;;;;24.16;38.25;102577.91;5056053;28;45262;-68
2021/10/09 07:54:12;;;;;;;;;8.50;8.50;;;;;24.20;38.30;102575.78;5054687;28;47301;-68
2021/10/09 07:56:38;;;;;;;;;9.25;8.25;;;;;24.22;38.27;102576.47;5055446;28;45483;-68
2021/10/09 07:59:04;;;;;;;;;10.25;9.25;;;;;24.25;38.59;102574.31;5055391;28;45363;-68
2021/10/09 08:01:31;;;;;;;;;9.00;9.00;;;;;24.28;38.63;102576.72;5072021;28;45592;-68
2021/10/09 08:03:57;;;;;;;;;8.75;8.75;;;;;24.30;38.60;102576.56;5075461;28;47088;-68
2021/10/09 08:06:23;;;;;;;;;7.00;7.00;;;;;24.32;38.64;102582.56;5077441;28;45229;-68
2021/10/09 08:08:48;;;;;;;;;7.50;7.00;;;;;24.35;37.98;102576.09;5075180;28;45213;-69
2021/10/09 08:11:14;;;;;;;;;6.50;6.50;;;;;24.36;38.42;102580.41;5075493;28;45506;-68
2021/10/09 08:13:39;;;;;;;;;7.00;7.00;;;;;24.36;38.08;102578.59;5075940;28;45400;-68
2021/10/09 08:16:04;;;;;;;;;8.00;8.00;;;;;24.38;38.22;102581.13;5075598;28;45373;-68
2021/10/09 08:18:30;;;;;;;;;7.00;7.00;;;;;24.39;38.35;102583.63;5059158;28;45752;-68
2021/10/09 08:21:04;;;;;;;;;8.00;8.00;;;;;24.38;38.42;102583.78;5074302;28;45593;-68
2021/10/09 08:23:38;;;;;;;;;8.50;8.50;;;;;24.32;38.21;102571.94;5074624;27;46369;-69
2021/10/09 08:39:05;;;;;;;;;5.25;5.00;;;;;24.48;38.98;102592.50;5075119;28;45460;-68
2021/10/09 08:41:30;;;;;;;;;10.00;8.00;;;;;24.48;38.63;102587.19;5074844;28;45569;-68
2021/10/09 08:43:56;;;;;;;;;6.75;6.75;;;;;24.49;39.04;102588.00;5074738;28;46117;-68
2021/10/09 08:46:22;;;;;;;;;7.00;7.00;;;;;24.49;38.59;102596.81;5075041;28;45460;-68
2021/10/09 08:48:50;;;;;;;;;7.00;7.00;;;;;24.47;38.44;102590.84;5056502;28;45264;-68
2021/10/09 08:51:24;;;;;;;;;6.00;6.00;;;;;24.44;38.56;102582.31;5074517;28;45522;-68
2021/10/09 08:53:50;;;;;;;;;7.75;7.75;;;;;24.50;38.67;102595.00;5072529;28;47405;-68
2021/10/09 08:56:40;;;;;;;;;7.50;7.50;;;;;24.51;38.69;102592.19;5074433;28;45430;-68
2021/10/09 08:59:16;;;;;;;;;7.25;6.50;;;;;24.47;38.83;102593.50;5074667;28;45309;-68
2021/10/09 09:31:48;;;;;;;;;4.00;4.00;;;;;24.55;38.80;102570.59;5072822;28;45223;-68
2021/10/09 09:34:34;;;;;;;;;6.00;5.50;;;;;24.52;38.78;102577.06;5059732;28;45515;-69
2021/10/09 09:37:14;;;;;;;;;5.00;5.00;;;;;24.60;38.76;102579.78;5073663;28;46873;-68
2021/10/09 09:39:42;;;;;;;;;8.75;7.00;;;;;24.60;38.93;102585.09;5072189;28;45487;-68
2021/10/09 09:42:09;;;;;;;;;6.75;6.75;;;;;24.56;39.00;102572.28;5075281;28;45366;-68
2021/10/09 09:44:35;;;;;;;;;7.25;7.00;;;;;24.58;38.97;102576.44;5073971;28;45498;-68
2021/10/09 09:47:06;;;;;;;;;7.25;6.25;;;;;24.59;39.06;102569.31;5072239;28;46411;-68
2021/10/09 09:49:32;;;;;;;;;9.25;8.75;;;;;24.58;38.70;102578.28;5073501;28;45471;-68
2021/10/09 09:51:58;;;;;;;;;7.75;7.75;;;;;24.57;39.05;102577.44;5073696;28;45501;-68
2021/10/09 09:54:28;;;;;;;;;6.50;6.50;;;;;24.49;38.89;102562.25;5075942;28;45521;-68
2021/10/09 09:56:58;;;;;;;;;7.25;7.00;;;;;24.56;38.77;102574.94;5073919;28;45369;-68
2021/10/09 09:59:30;;;;;;;;;9.25;9.00;;;;;24.55;38.76;102576.75;5073805;28;45239;-68
2021/10/09 10:01:57;;;;;;;;;7.25;6.00;;;;;24.55;39.21;102573.25;5073532;28;45493;-68
2021/10/09 10:04:23;;;;;;;;;9.00;7.00;;;;;24.54;38.67;102575.06;5073835;28;45361;-68
2021/10/09 10:06:49;;;;;;;;;8.75;7.00;;;;;24.55;39.11;102573.25;5073504;28;45359;-68
2021/10/09 10:09:14;;;;;;;;;9.25;7.00;;;;;24.55;38.76;102570.59;5057350;28;45380;-68
2021/10/09 10:11:41;;;;;;;;;10.50;8.25;;;;;24.53;38.98;102565.44;5071400;28;45461;-69
2021/10/09 10:14:07;;;;;;;;;8.75;8.00;;;;;24.54;39.30;102564.44;5073611;28;45594;-68
2021/10/09 10:16:32;;;;;;;;;6.50;6.50;;;;;24.54;38.70;102572.41;5072764;28;45767;-68
2021/10/09 10:18:58;;;;;;;;;6.25;6.25;;;;;24.45;38.80;102560.88;5073579;28;45378;-68
2021/10/09 10:21:40;;;;;;;;;7.00;7.00;;;;;24.51;39.28;102570.91;5075296;28;45352;-69
2021/10/09 10:24:32;;;;;;;;;10.25;8.00;;;;;24.52;39.00;102566.41;5074558;28;45442;-69
2021/10/09 10:27:36;;;;;;;;;8.50;7.00;;;;;24.50;38.80;102568.41;5074086;28;45871;-69
2021/10/09 10:30:14;;;;;;;;;9.50;7.75;;;;;24.49;39.12;102567.56;5072673;28;45327;-69
2021/10/09 10:33:00;;;;;;;;;6.75;6.25;;;;;24.45;38.98;102560.88;5073274;28;45419;-69
2021/10/09 10:35:31;;;;;;;;;7.00;6.00;;;;;24.50;39.14;102569.25;5072896;28;45510;-69
2021/10/09 10:38:03;;;;;;;;;7.75;7.25;;;;;24.44;38.91;102553.88;5073252;28;46251;-68
2021/10/09 10:40:51;;;;;;;;;6.75;6.50;;;;;24.50;39.07;102569.25;5073214;28;45340;-69
2021/10/09 10:46:28;;;;;;;;;6.50;6.25;;;;;24.50;39.13;102563.91;5073305;28;45356;-68
2021/10/09 10:49:01;;;;;;;;;7.50;7.00;;;;;24.51;39.03;102564.75;5071523;28;46218;-68
2021/10/09 10:51:56;;;;;;;;;9.50;8.00;;;;;24.51;39.11;102562.09;5074784;28;45485;-68
2021/10/09 10:56:59;;;;;;;;;6.00;6.00;;;;;24.50;39.09;102558.59;5073187;28;45583;-68
2021/10/09 10:59:46;;;;;;;;;8.00;8.00;;;;;24.50;39.36;102563.91;5072995;28;45475;-68
2021/10/09 11:02:24;;;;;;;;;9.00;8.00;;;;;24.51;39.17;102551.47;5076399;28;45493;-68
2021/10/09 11:05:00;;;;;;;;;9.25;7.25;;;;;24.51;38.93;102562.09;5074575;28;45305;-68
2021/10/09 11:07:33;;;;;;;;;8.25;7.00;;;;;24.50;38.86;102560.41;5076454;28;45499;-68
2021/10/09 11:10:19;;;;;;;;;7.00;7.00;;;;;24.49;38.94;102558.72;5076291;28;47102;-68
2021/10/09 11:12:47;;;;;;;;;8.00;8.00;;;;;24.48;39.20;102557.09;5074673;28;45543;-68
2021/10/09 11:15:17;;;;;;;;;7.75;7.50;;;;;24.47;39.25;102550.91;5076105;28;45790;-68
2021/10/09 11:17:45;;;;;;;;;6.00;6.00;;;;;24.48;39.15;102549.09;5076013;28;45446;-68
2021/10/09 11:20:22;;;;;;;;;7.50;7.50;;;;;24.47;38.90;102550.09;5075894;28;47389;-68
2021/10/09 11:22:49;;;;;;;;;10.75;8.00;;;;;24.46;39.31;102545.78;5076317;28;45563;-68
2021/10/09 11:25:22;;;;;;;;;8.25;8.25;;;;;24.46;39.34;102551.09;5076366;28;45367;-68
2021/10/09 11:27:47;;;;;;;;;6.25;6.25;;;;;24.45;39.28;102544.09;5077023;28;45246;-68
2021/10/09 11:30:13;;;;;;;;;7.50;7.50;;;;;24.45;39.25;102549.41;5075674;28;45464;-68
2021/10/09 11:32:41;;;;;;;;;9.75;8.50;;;;;24.44;39.26;102548.56;5075743;28;45504;-68
2021/10/09 11:35:08;;;;;;;;;7.00;7.00;;;;;24.41;39.42;102543.56;5075949;28;45376;-68
2021/10/09 11:37:35;;;;;;;;;9.50;8.50;;;;;24.44;38.99;102545.06;5076267;28;45580;-68
2021/10/09 11:40:04;;;;;;;;;7.25;7.25;;;;;24.32;39.12;102529.38;5075553;28;47290;-69
2021/10/09 11:42:42;;;;;;;;;6.50;6.50;;;;;24.42;39.57;102545.22;5077745;28;45341;-68
2021/10/09 11:45:18;;;;;;;;;8.25;8.25;;;;;24.41;39.32;102548.88;5076828;28;45490;-68
2021/10/09 11:56:07;;;;;;;;;9.00;6.75;;;;;24.41;39.20;102543.56;5075852;28;45522;-68
2021/10/09 11:58:57;;;;;;;;;7.50;7.50;;;;;24.39;39.75;102541.06;5058722;28;45656;-68
2021/10/09 12:01:33;;;;;;;;;10.25;9.50;;;;;24.39;39.36;102527.75;5061581;28;45523;-68
2021/10/09 12:04:17;;;;;;;;;6.75;6.75;;;;;24.40;39.36;102539.22;5074778;28;45575;-68
2021/10/09 12:06:55;;;;;;;;;7.75;7.50;;;;;24.38;39.29;102528.72;5074242;28;45371;-68
2021/10/09 12:09:42;;;;;;;;;7.75;7.75;;;;;24.39;39.05;102538.41;5076232;28;45426;-68
2021/10/09 12:12:22;;;;;;;;;7.00;7.00;;;;;24.38;39.42;102528.72;5076291;28;47100;-68
2021/10/09 12:14:49;;;;;;;;;6.50;6.50;;;;;24.38;39.40;102528.72;5075412;28;45460;-69
2021/10/09 12:17:16;;;;;;;;;9.50;8.50;;;;;24.39;39.39;102521.59;5075067;28;45608;-68
2021/10/09 12:19:42;;;;;;;;;9.75;8.75;;;;;24.37;39.15;102519.09;5075425;28;45406;-68
2021/10/09 12:22:13;;;;;;;;;8.50;8.25;;;;;24.38;39.48;102523.41;5073829;28;47095;-68
2021/10/09 12:24:52;;;;;;;;;8.00;7.00;;;;;24.39;39.24;102524.25;5076140;28;45395;-68
2021/10/09 12:27:20;;;;;;;;;8.50;8.50;;;;;24.39;39.48;102521.59;5075520;28;45317;-68
2021/10/09 12:30:04;;;;;;;;;8.50;7.50;;;;;24.39;39.62;102519.78;5074952;28;45309;-68
2021/10/09 12:32:38;;;;;;;;;9.00;8.00;;;;;24.38;39.33;102515.44;5074895;28;47262;-68
2021/10/09 12:35:22;;;;;;;;;7.75;7.75;;;;;24.39;39.36;102524.25;5074836;28;45822;-68
2021/10/09 12:38:01;;;;;;;;;10.00;8.75;;;;;24.38;39.58;102512.78;5075091;28;45338;-68
2021/10/09 12:40:48;;;;;;;;;7.00;7.00;;;;;24.37;39.39;102510.28;5075032;28;45383;-68
2021/10/09 12:43:20;;;;;;;;;9.00;9.00;;;;;24.36;39.24;102511.25;5060025;28;46387;-68
2021/10/09 12:45:46;;;;;;;;;12.00;10.75;;;;;24.34;39.31;102506.09;5075397;28;45547;-68
2021/10/09 12:48:12;;;;;;;;;7.75;7.75;;;;;24.36;39.56;102505.94;5074702;28;45414;-69
2021/10/09 12:50:39;;;;;;;;;10.50;8.75;;;;;24.29;39.18;102495.94;5074359;28;45340;-68
2021/10/09 12:53:05;;;;;;;;;8.25;7.75;;;;;24.34;39.52;102500.78;5074719;28;46423;-69
2021/10/09 12:55:33;;;;;;;;;9.00;7.75;;;;;24.35;39.31;102501.63;5074686;28;46099;-68
2021/10/09 12:58:09;;;;;;;;;9.00;8.00;;;;;24.34;39.27;102495.47;5074968;28;45527;-68
2021/10/09 13:00:36;;;;;;;;;8.50;8.25;;;;;24.34;39.33;102495.47;5071976;28;45305;-68
2021/10/09 13:03:02;;;;;;;;;12.50;9.50;;;;;24.33;39.20;102496.44;5073213;28;47084;-68
2021/10/09 13:05:31;;;;;;;;;10.75;8.75;;;;;24.30;39.49;102486.13;5074386;28;45438;-68
2021/10/09 13:07:58;;;;;;;;;12.25;11.00;;;;;24.32;39.63;102500.13;5074590;28;45336;-68
2021/10/09 13:10:24;;;;;;;;;8.00;6.25;;;;;24.25;39.48;102485.75;5074613;28;45417;-68
2021/10/09 13:12:51;;;;;;;;;8.50;8.00;;;;;24.21;39.10;102471.91;5074405;28;45363;-68
2021/10/09 13:15:17;;;;;;;;;11.00;9.25;;;;;24.31;39.62;102486.94;5075959;28;45493;-68
2021/10/09 13:17:48;;;;;;;;;8.00;8.00;;;;;24.31;39.62;102490.44;5074545;28;45553;-68
2021/10/09 13:20:16;;;;;;;;;10.25;8.50;;;;;24.31;39.45;102485.13;5072364;28;45299;-69
2021/10/09 13:22:41;;;;;;;;;11.00;9.75;;;;;24.29;39.19;102479.97;5073767;28;45583;-68
2021/10/09 13:25:07;;;;;;;;;10.00;10.00;;;;;24.30;39.52;102483.47;5072334;28;45541;-69
2021/10/09 13:27:33;;;;;;;;;8.50;8.00;;;;;24.18;39.42;102470.41;5076465;28;46236;-69
2021/10/09 13:30:01;;;;;;;;;8.00;8.00;;;;;24.27;39.65;102476.66;5073887;28;45494;-67
2021/10/09 13:32:26;;;;;;;;;9.75;9.25;;;;;24.27;39.07;102473.97;5074099;28;47016;-68
2021/10/09 13:34:52;;;;;;;;;9.75;8.25;;;;;24.26;39.18;102469.66;5074098;28;46284;-68
2021/10/09 13:37:22;;;;;;;;;9.25;9.25;;;;;24.28;39.39;102474.78;5074272;28;45395;-69
2021/10/09 13:39:49;;;;;;;;;8.75;8.75;;;;;24.28;39.30;102470.31;5075072;28;45222;-68
2021/10/09 13:42:15;;;;;;;;;6.75;6.75;;;;;24.28;39.34;102475.63;5073583;28;47087;-68
2021/10/09 13:44:40;;;;;;;;;9.25;8.25;;;;;24.21;39.21;102458.59;5073852;28;45290;-68